Time;durP1;ratioP1;P1;durP2;ratioP2;P2;SDS_P1;SDS_P2;PMS_P1;PMS_P2;Temp;Humidity;BMP_temperature;BMP_pressure;BME280_temperature;BME280_humidity;BME280_pressure;Samples;Min_cycle;Max_cycle;Signal;HPM_P1;HPM_P2
2021/08/26 00:00:04;;;;;;;3.55;1.17;;;15.10;99.90;;;;;;5058147;28;20386;-79
2021/08/26 00:05:50;;;;;;;1.35;1.20;;;15.10;99.90;;;;;;5012749;28;20137;-79
2021/08/26 00:08:18;;;;;;;4.43;1.30;;;15.10;99.90;;;;;;5048328;28;20057;-80
2021/08/26 00:10:44;;;;;;;2.78;1.23;;;15.10;99.90;;;;;;5056614;28;20131;-79
2021/08/26 00:13:11;;;;;;;2.53;1.23;;;15.10;99.90;;;;;;5076722;28;20053;-77
2021/08/26 00:15:40;;;;;;;9.15;1.27;;;15.20;99.90;;;;;;5052089;28;20498;-78
2021/08/26 00:18:06;;;;;;;0.82;0.73;;;15.20;99.90;;;;;;5053313;28;20056;-76
2021/08/26 00:20:32;;;;;;;2.17;0.65;;;15.20;99.90;;;;;;5060592;28;20044;-78
2021/08/26 00:22:58;;;;;;;10.98;1.25;;;15.10;99.90;;;;;;5058757;28;20099;-77
2021/08/26 00:25:24;;;;;;;;;;;15.10;99.90;;;;;;5058161;28;20094;-78
2021/08/26 00:27:49;;;;;;;4.28;0.98;;;15.10;99.90;;;;;;5064596;28;19917;-78
2021/08/26 00:30:15;;;;;;;;;;;15.10;99.90;;;;;;5043569;28;20056;-77
2021/08/26 00:32:41;;;;;;;1.35;0.70;;;15.00;99.90;;;;;;5057152;28;20319;-77
2021/08/26 00:35:07;;;;;;;0.70;0.70;;;15.10;99.90;;;;;;5038171;28;20060;-78
2021/08/26 00:37:33;;;;;;;1.77;0.80;;;15.10;99.90;;;;;;5042663;28;20124;-78
2021/08/26 00:39:58;;;;;;;0.60;0.60;;;15.10;99.90;;;;;;5052862;28;20122;-79
2021/08/26 00:42:24;;;;;;;2.53;0.80;;;15.20;99.90;;;;;;5049919;28;20044;-78
2021/08/26 00:44:51;;;;;;;0.90;0.90;;;15.20;99.90;;;;;;5047029;28;20045;-78
2021/08/26 00:47:16;;;;;;;2.47;0.50;;;15.20;99.90;;;;;;5049990;28;20114;-78
2021/08/26 00:49:43;;;;;;;1.75;0.75;;;15.20;99.90;;;;;;5059574;28;20041;-78
2021/08/26 00:52:10;;;;;;;4.13;0.70;;;15.10;99.90;;;;;;5079190;28;20082;-78
2021/08/26 00:54:36;;;;;;;0.68;0.55;;;15.10;99.90;;;;;;5048388;28;20049;-77
2021/08/26 00:57:02;;;;;;;1.70;0.88;;;15.10;99.90;;;;;;5050288;28;20080;-77
2021/08/26 00:59:31;;;;;;;3.47;0.60;;;15.10;99.90;;;;;;5040349;28;20073;-78
2021/08/26 01:02:06;;;;;;;7.13;1.38;;;15.00;99.90;;;;;;5055730;28;20109;-79
2021/08/26 01:04:58;;;;;;;2.80;1.52;;;15.00;99.90;;;;;;5060248;28;20116;-78
2021/08/26 01:07:32;;;;;;;2.55;1.52;;;15.00;99.90;;;;;;5047729;28;20107;-77
2021/08/26 01:10:03;;;;;;;3.13;1.15;;;14.90;99.90;;;;;;5051331;28;20526;-78
2021/08/26 01:12:30;;;;;;;0.70;0.70;;;14.90;99.90;;;;;;5056247;28;20055;-77
2021/08/26 01:14:56;;;;;;;0.95;0.77;;;14.80;99.90;;;;;;5061063;28;20048;-77
2021/08/26 01:17:23;;;;;;;3.42;1.55;;;14.70;99.90;;;;;;5041581;28;20059;-76
2021/08/26 01:19:49;;;;;;;0.45;0.45;;;14.60;99.90;;;;;;5029821;28;20102;-77
2021/08/26 01:22:23;;;;;;;1.08;0.82;;;14.60;99.90;;;;;;5045052;28;20037;-77
2021/08/26 01:24:55;;;;;;;2.25;1.17;;;14.60;99.90;;;;;;5056424;28;20045;-77
2021/08/26 01:27:23;;;;;;;8.95;1.42;;;14.50;99.90;;;;;;5038410;28;20048;-77
2021/08/26 01:29:49;;;;;;;1.10;1.02;;;14.50;99.90;;;;;;5054142;28;20332;-78
2021/08/26 01:32:22;;;;;;;;;;;14.50;99.90;;;;;;5038640;28;20044;-78
2021/08/26 01:34:49;;;;;;;1.52;1.20;;;14.40;99.90;;;;;;5086714;28;19921;-77
2021/08/26 01:37:19;;;;;;;0.40;0.40;;;14.30;99.90;;;;;;5054765;28;20102;-78
2021/08/26 01:39:46;;;;;;;1.80;0.70;;;14.30;99.90;;;;;;5055665;28;20451;-77
2021/08/26 01:42:13;;;;;;;2.08;1.10;;;14.30;99.90;;;;;;5056780;28;20128;-77
2021/08/26 01:44:38;;;;;;;;;;;14.30;99.90;;;;;;5060433;28;20129;-77
2021/08/26 01:47:09;;;;;;;1.20;0.95;;;14.30;99.90;;;;;;5047889;28;19999;-77
2021/08/26 01:49:34;;;;;;;3.80;1.00;;;14.30;99.90;;;;;;5054574;28;20509;-77
2021/08/26 01:52:00;;;;;;;5.60;1.15;;;14.30;99.90;;;;;;5046477;28;20037;-78
2021/08/26 01:54:26;;;;;;;1.17;0.65;;;14.30;99.90;;;;;;5050242;28;20108;-77
2021/08/26 01:56:51;;;;;;;4.40;0.77;;;14.30;99.90;;;;;;5063016;28;20487;-77
2021/08/26 01:59:20;;;;;;;0.57;0.57;;;14.30;99.90;;;;;;5066427;28;20482;-77
2021/08/26 02:01:46;;;;;;;3.40;1.15;;;14.30;99.90;;;;;;5053997;28;20045;-77
2021/08/26 02:04:11;;;;;;;7.68;0.73;;;14.40;99.90;;;;;;5052727;28;20131;-77
2021/08/26 02:06:37;;;;;;;;;;;14.40;99.90;;;;;;5029571;28;20049;-77
2021/08/26 02:09:03;;;;;;;0.43;0.43;;;14.30;99.90;;;;;;5066619;28;20027;-78
2021/08/26 02:11:28;;;;;;;1.45;0.60;;;14.40;99.90;;;;;;5065106;28;20048;-77
2021/08/26 02:13:54;;;;;;;1.30;0.55;;;14.40;99.90;;;;;;5085232;28;20041;-77
2021/08/26 02:16:20;;;;;;;0.73;0.68;;;14.40;99.90;;;;;;5051982;28;20545;-78
2021/08/26 02:18:45;;;;;;;0.93;0.77;;;14.50;99.90;;;;;;5050748;28;20095;-79
2021/08/26 02:21:11;;;;;;;0.50;0.50;;;14.40;99.90;;;;;;5060063;28;20119;-78
2021/08/26 02:23:37;;;;;;;;;;;14.40;99.90;;;;;;5035642;28;20064;-79
2021/08/26 02:26:03;;;;;;;1.02;0.63;;;14.40;99.90;;;;;;5086434;28;19916;-78
2021/08/26 02:28:28;;;;;;;;;;;14.40;99.90;;;;;;5035348;28;20052;-79
2021/08/26 02:30:54;;;;;;;0.90;0.80;;;14.50;99.90;;;;;;5060984;28;19927;-78
2021/08/26 02:33:20;;;;;;;1.27;0.82;;;14.50;99.90;;;;;;5049584;28;20419;-78
2021/08/26 02:35:46;;;;;;;1.42;1.30;;;14.50;99.90;;;;;;5036044;28;20124;-78
2021/08/26 02:38:11;;;;;;;0.40;0.40;;;14.50;99.90;;;;;;5052180;28;20056;-79
2021/08/26 02:40:37;;;;;;;1.98;1.35;;;14.60;99.90;;;;;;5050288;28;20107;-78
2021/08/26 02:43:03;;;;;;;;;;;14.60;99.90;;;;;;5050381;28;20152;-78
2021/08/26 02:45:28;;;;;;;1.77;1.10;;;14.60;99.90;;;;;;5036352;28;19917;-79
2021/08/26 02:47:54;;;;;;;2.45;0.98;;;14.60;99.90;;;;;;5044021;28;20067;-78
2021/08/26 02:50:20;;;;;;;1.33;0.80;;;14.60;99.90;;;;;;5039357;28;20068;-78
2021/08/26 02:52:45;;;;;;;1.63;0.88;;;14.60;99.90;;;;;;5048794;28;20538;-77
2021/08/26 02:55:11;;;;;;;;;;;14.60;99.90;;;;;;5047773;28;20037;-79
2021/08/26 02:57:37;;;;;;;2.70;0.77;;;14.50;99.90;;;;;;5051806;28;19929;-78
2021/08/26 03:00:07;;;;;;;0.98;0.88;;;14.60;99.90;;;;;;5051152;28;20387;-78
2021/08/26 03:02:33;;;;;;;0.73;0.73;;;14.60;99.90;;;;;;5049680;28;20040;-78
2021/08/26 03:04:58;;;;;;;4.75;1.50;;;14.50;99.90;;;;;;5082541;28;20036;-77
2021/08/26 03:07:24;;;;;;;0.93;0.85;;;14.50;99.90;;;;;;5058731;28;20044;-78
2021/08/26 03:09:50;;;;;;;1.48;1.08;;;14.50;99.90;;;;;;5048168;28;20044;-78
2021/08/26 03:12:15;;;;;;;0.95;0.55;;;14.50;99.90;;;;;;5056138;28;20482;-78
2021/08/26 03:14:41;;;;;;;0.80;0.80;;;14.50;99.90;;;;;;5043914;28;20045;-78
2021/08/26 03:17:07;;;;;;;1.17;1.05;;;14.50;99.90;;;;;;5057820;28;20044;-78
2021/08/26 03:19:33;;;;;;;3.08;1.48;;;14.50;99.90;;;;;;5064402;28;20509;-77
2021/08/26 03:21:59;;;;;;;1.40;1.02;;;14.50;99.90;;;;;;5062371;28;20048;-78
2021/08/26 03:24:25;;;;;;;5.47;1.10;;;14.50;99.90;;;;;;5056875;28;20165;-77
2021/08/26 03:26:50;;;;;;;;;;;14.60;99.90;;;;;;5044905;28;20045;-78
2021/08/26 03:29:16;;;;;;;2.70;1.15;;;14.60;99.90;;;;;;5064099;28;19917;-77
2021/08/26 03:31:42;;;;;;;0.55;0.55;;;14.60;99.90;;;;;;5064158;28;20076;-78
2021/08/26 03:34:07;;;;;;;;;;;14.70;99.90;;;;;;5040439;28;20048;-78
2021/08/26 03:36:33;;;;;;;3.78;1.42;;;14.70;99.90;;;;;;5058149;28;19923;-77
2021/08/26 03:38:58;;;;;;;6.15;1.27;;;14.70;99.90;;;;;;5042983;28;20398;-78
2021/08/26 03:41:24;;;;;;;3.42;1.70;;;14.60;99.90;;;;;;5055389;28;20106;-77
2021/08/26 03:43:51;;;;;;;3.17;1.73;;;14.70;99.90;;;;;;5058632;28;20504;-77
2021/08/26 03:46:17;;;;;;;1.05;0.93;;;14.70;99.90;;;;;;5081984;28;20036;-77
2021/08/26 03:48:42;;;;;;;4.93;2.08;;;14.70;99.90;;;;;;5030453;28;20539;-78
2021/08/26 03:51:08;;;;;;;2.55;0.77;;;14.70;99.90;;;;;;5046277;28;20036;-78
2021/08/26 03:53:34;;;;;;;4.93;1.27;;;14.60;99.90;;;;;;5034948;28;20052;-78
2021/08/26 03:56:00;;;;;;;3.55;1.08;;;14.60;99.90;;;;;;5064407;28;20040;-77
2021/08/26 03:58:25;;;;;;;2.70;1.15;;;14.60;99.90;;;;;;5057108;28;20128;-77
2021/08/26 04:00:51;;;;;;;3.83;1.45;;;14.60;99.90;;;;;;5043298;28;20033;-77
2021/08/26 04:03:17;;;;;;;2.28;1.48;;;14.60;99.90;;;;;;5056928;28;20059;-78
2021/08/26 04:05:43;;;;;;;3.10;0.77;;;14.60;99.90;;;;;;5057341;28;20095;-77
2021/08/26 04:08:08;;;;;;;0.70;0.70;;;14.60;99.90;;;;;;5051594;28;20487;-78
2021/08/26 04:10:34;;;;;;;;;;;14.60;99.90;;;;;;5030935;28;20049;-77
2021/08/26 04:12:59;;;;;;;4.28;1.67;;;14.60;99.90;;;;;;5057345;28;19923;-78
2021/08/26 04:15:25;;;;;;;4.43;2.33;;;14.60;99.90;;;;;;5043089;28;20056;-78
2021/08/26 04:17:51;;;;;;;8.48;1.70;;;14.60;99.90;;;;;;5048922;28;20407;-78
2021/08/26 04:20:16;;;;;;;4.55;1.60;;;14.60;99.90;;;;;;5066353;28;20041;-78
2021/08/26 04:22:42;;;;;;;7.35;1.48;;;14.60;99.90;;;;;;5044099;28;20107;-77
2021/08/26 04:25:08;;;;;;;4.70;0.95;;;14.60;99.90;;;;;;5056673;28;20478;-77
2021/08/26 04:27:34;;;;;;;;;;;14.50;99.90;;;;;;5063593;28;20041;-78
2021/08/26 04:29:59;;;;;;;7.93;1.48;;;14.50;99.90;;;;;;5046236;28;20485;-77
2021/08/26 04:32:25;;;;;;;2.25;1.15;;;14.50;99.90;;;;;;5049967;28;20036;-77
2021/08/26 04:34:51;;;;;;;1.50;1.40;;;14.50;99.90;;;;;;5034184;28;20110;-77
2021/08/26 04:37:16;;;;;;;1.52;1.20;;;14.50;99.90;;;;;;5039188;28;20114;-77
2021/08/26 04:39:42;;;;;;;;;;;14.50;99.90;;;;;;5051351;28;20041;-78
2021/08/26 04:42:08;;;;;;;3.25;1.23;;;14.50;99.90;;;;;;5072552;28;19936;-78
2021/08/26 04:44:33;;;;;;;4.88;1.88;;;14.50;99.90;;;;;;5038639;28;20053;-78
2021/08/26 04:46:59;;;;;;;4.20;1.55;;;14.60;99.90;;;;;;5037857;28;20106;-77
2021/08/26 04:49:25;;;;;;;4.50;1.63;;;14.60;99.90;;;;;;5050273;28;20049;-78
2021/08/26 04:51:51;;;;;;;0.68;0.68;;;14.60;99.90;;;;;;5054830;28;20043;-78
2021/08/26 04:54:18;;;;;;;4.85;1.67;;;14.60;99.90;;;;;;5062960;28;20471;-77
2021/08/26 04:56:44;;;;;;;1.15;1.02;;;14.60;99.90;;;;;;5048914;28;20115;-78
2021/08/26 04:59:10;;;;;;;1.77;1.63;;;14.70;99.90;;;;;;5037853;28;20075;-78
2021/08/26 05:01:35;;;;;;;;;;;14.70;99.90;;;;;;5028411;28;20072;-78
2021/08/26 05:04:03;;;;;;;1.63;1.30;;;14.80;99.90;;;;;;5050565;28;19916;-78
2021/08/26 05:06:31;;;;;;;3.13;1.38;;;14.80;99.90;;;;;;5035058;28;20056;-79
2021/08/26 05:08:56;;;;;;;6.10;1.73;;;14.90;99.90;;;;;;5055904;28;20048;-78
2021/08/26 05:11:22;;;;;;;3.05;1.50;;;14.90;99.90;;;;;;5045312;28;20087;-77
2021/08/26 05:13:48;;;;;;;9.73;2.17;;;15.00;99.90;;;;;;5045932;28;20091;-77
2021/08/26 05:16:14;;;;;;;2.00;1.60;;;15.00;99.90;;;;;;5036514;28;20045;-77
2021/08/26 05:18:40;;;;;;;5.05;2.08;;;15.10;99.90;;;;;;5035513;28;20069;-78
2021/08/26 05:21:06;;;;;;;2.33;1.70;;;15.10;99.90;;;;;;5041520;28;20130;-78
2021/08/26 05:23:31;;;;;;;5.15;1.58;;;15.20;99.90;;;;;;5049350;28;20092;-77
2021/08/26 05:25:57;;;;;;;;;;;15.20;99.90;;;;;;5055444;28;20055;-77
2021/08/26 05:28:23;;;;;;;4.63;2.33;;;15.20;99.90;;;;;;5058036;28;20373;-78
2021/08/26 05:30:48;;;;;;;;;;;15.20;99.90;;;;;;5036378;28;20124;-78
2021/08/26 05:33:14;;;;;;;4.43;2.10;;;15.20;99.90;;;;;;5082166;28;19970;-78
2021/08/26 05:35:40;;;;;;;1.85;1.25;;;15.10;99.90;;;;;;5059826;28;20049;-78
2021/08/26 05:38:06;;;;;;;1.85;1.02;;;15.10;99.90;;;;;;5051877;28;20055;-76
2021/08/26 05:40:32;;;;;;;3.40;2.25;;;15.10;99.90;;;;;;5038173;28;20040;-77
2021/08/26 05:42:57;;;;;;;3.88;1.45;;;15.10;99.90;;;;;;5058027;28;20463;-78
2021/08/26 05:45:23;;;;;;;;;;;15.10;99.90;;;;;;5051859;28;20045;-77
2021/08/26 05:47:54;;;;;;;3.72;1.15;;;15.10;99.90;;;;;;5063405;28;19920;-77
2021/08/26 05:50:21;;;;;;;16.60;2.03;;;15.10;99.90;;;;;;5061368;28;20045;-77
2021/08/26 05:52:48;;;;;;;1.63;0.98;;;15.10;99.90;;;;;;5062559;28;20548;-77
2021/08/26 05:55:13;;;;;;;;;;;15.10;99.90;;;;;;5037771;28;20044;-77
2021/08/26 05:57:39;;;;;;;0.82;0.75;;;15.10;99.90;;;;;;5078467;28;19920;-77
2021/08/26 06:00:06;;;;;;;2.50;1.67;;;15.10;99.90;;;;;;5052433;28;20488;-78
2021/08/26 06:02:31;;;;;;;4.72;2.28;;;15.10;99.90;;;;;;5051415;28;20370;-77
2021/08/26 06:04:57;;;;;;;2.40;1.63;;;15.20;99.90;;;;;;5062873;28;20048;-79
2021/08/26 06:07:24;;;;;;;3.03;1.10;;;15.20;99.90;;;;;;5044210;28;20492;-77
2021/08/26 06:09:50;;;;;;;8.45;1.83;;;15.20;99.90;;;;;;5046937;28;20049;-78
2021/08/26 06:12:16;;;;;;;2.10;1.33;;;15.30;99.90;;;;;;5084506;28;20175;-77
2021/08/26 06:14:43;;;;;;;;;;;15.30;99.90;;;;;;5063978;28;20045;-78
2021/08/26 06:17:09;;;;;;;3.13;1.52;;;15.40;99.90;;;;;;5071385;28;20243;-78
2021/08/26 06:19:34;;;;;;;;;;;15.50;99.90;;;;;;5037593;28;20043;-78
2021/08/26 06:22:00;;;;;;;2.05;1.33;;;15.50;99.90;;;;;;5073425;28;19917;-79
2021/08/26 06:24:26;;;;;;;4.97;1.38;;;15.60;99.90;;;;;;5023349;28;20055;-80
2021/08/26 06:26:52;;;;;;;5.10;2.05;;;15.70;99.90;;;;;;5056820;28;20059;-78
2021/08/26 06:29:24;;;;;;;6.03;1.30;;;15.70;99.90;;;;;;5040897;28;20634;-77
2021/08/26 06:31:50;;;;;;;2.92;1.48;;;15.80;99.90;;;;;;5065008;28;20044;-76
2021/08/26 06:34:22;;;;;;;2.25;1.55;;;15.90;99.90;;;;;;5026744;28;20088;-77
2021/08/26 06:36:49;;;;;;;5.90;2.35;;;16.00;99.90;;;;;;5068055;28;20132;-77
2021/08/26 06:39:24;;;;;;;3.92;1.90;;;16.10;99.90;;;;;;5060665;28;20120;-78
2021/08/26 06:41:51;;;;;;;2.28;1.45;;;16.10;99.90;;;;;;5054895;28;20060;-78
2021/08/26 06:44:18;;;;;;;3.40;1.67;;;16.20;99.90;;;;;;5059596;28;20056;-77
2021/08/26 06:46:46;;;;;;;6.32;1.67;;;16.30;99.90;;;;;;5053471;28;20084;-79
2021/08/26 06:49:12;;;;;;;6.68;1.63;;;16.40;99.90;;;;;;5060488;28;20084;-79
2021/08/26 06:51:38;;;;;;;;;;;16.40;99.90;;;;;;5054722;28;20390;-78
2021/08/26 06:54:03;;;;;;;2.00;0.90;;;16.50;99.90;;;;;;5057300;28;20078;-80
2021/08/26 06:56:29;;;;;;;;;;;16.60;99.90;;;;;;5055537;28;20037;-78
2021/08/26 06:58:55;;;;;;;1.98;1.15;;;16.70;99.90;;;;;;5066397;28;19923;-80
2021/08/26 07:01:20;;;;;;;;;;;16.80;99.90;;;;;;5047522;28;20086;-78
2021/08/26 07:04:06;;;;;;;3.00;1.55;;;16.90;99.90;;;;;;5072179;28;19900;-80
2021/08/26 07:06:32;;;;;;;6.13;1.10;;;17.10;99.90;;;;;;5041938;28;20041;-80
2021/08/26 07:08:58;;;;;;;;;;;17.30;99.90;;;;;;5057720;28;20037;-77
2021/08/26 07:11:24;;;;;;;9.60;1.77;;;17.50;99.90;;;;;;5050714;28;19960;-80
2021/08/26 07:13:49;;;;;;;;;;;17.60;99.90;;;;;;5038388;28;20398;-78
2021/08/26 07:16:15;;;;;;;1.48;1.17;;;17.60;99.90;;;;;;5058433;28;19952;-78
2021/08/26 07:18:40;;;;;;;;;;;17.70;99.90;;;;;;5063859;28;20045;-78
2021/08/26 07:21:06;;;;;;;1.95;1.10;;;17.80;99.90;;;;;;5064302;28;20007;-78
2021/08/26 07:23:32;;;;;;;;;;;17.90;99.90;;;;;;5052455;28;20352;-79
2021/08/26 07:25:58;;;;;;;3.50;1.60;;;17.90;99.90;;;;;;5072500;28;19917;-79
2021/08/26 07:28:25;;;;;;;5.78;1.42;;;18.00;99.90;;;;;;5059326;28;20049;-78
2021/08/26 07:30:50;;;;;;;3.85;1.42;;;18.20;99.90;;;;;;5052619;28;20489;-78
2021/08/26 07:33:16;;;;;;;;;;;18.40;99.90;;;;;;5054736;28;20064;-77
2021/08/26 07:35:42;;;;;;;8.38;1.95;;;18.40;99.90;;;;;;5052226;28;19916;-79
2021/08/26 07:38:08;;;;;;;;;;;18.40;99.90;;;;;;5063487;28;20098;-78
2021/08/26 07:40:34;;;;;;;4.97;1.35;;;18.40;99.90;;;;;;5052069;28;19916;-78
2021/08/26 07:42:59;;;;;;;;;;;18.40;99.90;;;;;;5064485;28;20474;-80
2021/08/26 07:45:25;;;;;;;2.45;1.63;;;18.40;99.90;;;;;;5062586;28;19917;-76
2021/08/26 07:47:51;;;;;;;;;;;18.10;99.90;;;;;;5060609;28;20040;-80
2021/08/26 07:50:18;;;;;;;5.60;1.55;;;18.50;99.90;;;;;;5054167;28;19928;-78
2021/08/26 07:52:43;;;;;;;2.65;1.65;;;18.60;99.90;;;;;;5069534;28;20424;-79
2021/08/26 07:55:09;;;;;;;;;;;18.60;99.90;;;;;;5060415;28;20108;-78
2021/08/26 07:57:35;;;;;;;5.03;1.85;;;18.70;99.90;;;;;;5055852;28;19916;-79
2021/08/26 08:00:00;;;;;;;;;;;18.80;99.90;;;;;;5039589;28;20064;-79
2021/08/26 08:02:26;;;;;;;3.78;1.05;;;18.80;99.90;;;;;;5075419;28;19935;-78
2021/08/26 08:04:52;;;;;;;;;;;18.80;99.90;;;;;;5039905;28;20045;-78
2021/08/26 08:07:17;;;;;;;2.53;1.60;;;18.80;99.90;;;;;;5064456;28;20019;-80
2021/08/26 08:09:43;;;;;;;;;;;18.70;99.90;;;;;;5063774;28;20052;-80
2021/08/26 08:12:09;;;;;;;12.23;2.10;;;18.70;99.90;;;;;;5059773;28;19916;-78
2021/08/26 08:14:35;;;;;;;;;;;18.70;99.90;;;;;;5049304;28;20052;-77
2021/08/26 08:17:01;;;;;;;6.65;1.77;;;18.80;99.90;;;;;;5053541;28;20653;-77
2021/08/26 08:19:26;;;;;;;;;;;18.80;99.90;;;;;;5075249;28;20438;-77
2021/08/26 08:21:53;;;;;;;5.75;1.90;;;18.90;99.90;;;;;;5079628;28;19916;-78
2021/08/26 08:24:19;;;;;;;4.10;1.38;;;19.00;99.90;;;;;;5054633;28;20037;-78
2021/08/26 08:26:45;;;;;;;13.57;1.77;;;19.00;99.90;;;;;;5053533;28;20032;-79
2021/08/26 08:29:11;;;;;;;4.95;1.50;;;19.00;99.90;;;;;;5035598;28;20191;-78
2021/08/26 08:31:37;;;;;;;;;;;19.10;99.90;;;;;;5039009;28;20124;-79
2021/08/26 08:34:02;;;;;;;2.60;1.25;;;19.00;99.90;;;;;;5050383;28;19971;-80
2021/08/26 08:36:29;;;;;;;4.50;1.45;;;18.90;99.90;;;;;;5058359;28;20045;-77
2021/08/26 08:38:55;;;;;;;;;;;18.90;99.90;;;;;;5058165;28;20029;-77
2021/08/26 08:41:28;;;;;;;6.22;0.80;;;18.90;99.90;;;;;;5051134;28;19927;-79
2021/08/26 08:44:01;;;;;;;4.40;1.48;;;18.80;99.90;;;;;;5026077;28;20095;-77
2021/08/26 08:46:29;;;;;;;5.25;1.60;;;19.00;99.90;;;;;;5062577;28;20049;-78
2021/08/26 08:48:56;;;;;;;2.03;1.00;;;19.10;99.90;;;;;;5053107;28;20079;-77
2021/08/26 08:51:23;;;;;;;2.22;1.50;;;19.30;99.90;;;;;;5057223;28;20044;-78
2021/08/26 08:53:49;;;;;;;2.97;1.52;;;19.30;99.90;;;;;;5054070;28;20402;-78
2021/08/26 08:56:17;;;;;;;3.47;1.70;;;19.30;99.90;;;;;;5050322;28;20098;-78
2021/08/26 08:58:43;;;;;;;2.97;1.67;;;19.50;99.90;;;;;;5052965;28;20040;-78
2021/08/26 09:01:12;;;;;;;3.22;1.55;;;19.60;99.90;;;;;;5055336;28;20047;-77
2021/08/26 09:03:38;;;;;;;3.42;1.52;;;19.80;99.90;;;;;;5036348;28;20049;-80
2021/08/26 09:06:08;;;;;;;9.18;1.75;;;19.90;99.90;;;;;;5023613;28;20041;-79
2021/08/26 09:08:34;;;;;;;3.63;1.27;;;20.10;99.90;;;;;;5036677;28;20049;-77
2021/08/26 09:11:09;;;;;;;1.95;1.50;;;20.20;99.90;;;;;;5036487;28;20178;-78
2021/08/26 09:13:35;;;;;;;3.13;1.30;;;20.10;99.90;;;;;;5036331;28;20048;-78
2021/08/26 09:16:02;;;;;;;7.55;2.17;;;20.00;99.90;;;;;;5052270;28;20048;-78
2021/08/26 09:18:30;;;;;;;1.48;0.88;;;20.00;99.90;;;;;;5018580;28;20040;-79
2021/08/26 09:20:59;;;;;;;3.65;1.20;;;20.30;99.90;;;;;;5036228;28;20139;-78
2021/08/26 09:23:27;;;;;;;4.88;2.08;;;20.40;99.90;;;;;;5053599;28;20048;-79
2021/08/26 09:25:55;;;;;;;1.85;0.63;;;20.50;99.90;;;;;;5028201;28;20074;-80
2021/08/26 09:28:25;;;;;;;3.03;1.25;;;20.60;99.90;;;;;;5037939;28;20375;-80
2021/08/26 09:31:17;;;;;;;4.13;1.85;;;20.70;99.90;;;;;;5054039;28;20459;-78
2021/08/26 09:33:51;;;;;;;7.07;1.38;;;20.70;99.90;;;;;;5034923;28;20402;-80
2021/08/26 09:36:27;;;;;;;2.10;1.48;;;20.70;99.90;;;;;;5074886;28;20123;-79
2021/08/26 09:39:02;;;;;;;5.57;1.80;;;20.70;99.90;;;;;;5087173;28;20106;-84
2021/08/26 09:41:57;;;;;;;3.17;1.15;;;20.50;99.90;;;;;;5054384;28;20041;-83
2021/08/26 09:44:28;;;;;;;1.30;1.20;;;20.50;99.90;;;;;;5053662;28;20390;-82
2021/08/26 09:46:56;;;;;;;1.95;1.25;;;20.70;99.90;;;;;;5045062;28;20084;-83
2021/08/26 09:49:24;;;;;;;5.85;1.77;;;20.60;99.90;;;;;;5054034;28;20090;-83
2021/08/26 09:52:07;;;;;;;2.83;1.48;;;20.70;99.90;;;;;;5079365;28;20050;-84
2021/08/26 09:54:42;;;;;;;1.48;1.23;;;20.90;99.90;;;;;;5068113;28;20474;-81
2021/08/26 09:57:28;;;;;;;5.75;2.10;;;20.80;99.90;;;;;;5059289;28;20041;-84
2021/08/26 09:59:56;;;;;;;4.40;1.25;;;20.50;99.90;;;;;;5026820;28;20076;-83
2021/08/26 10:02:24;;;;;;;4.88;1.63;;;20.20;99.90;;;;;;5036397;28;20132;-83
2021/08/26 10:04:51;;;;;;;4.28;1.95;;;20.10;99.90;;;;;;5070247;28;20044;-83
2021/08/26 10:07:17;;;;;;;2.60;1.13;;;20.20;99.90;;;;;;5054359;28;20076;-82
2021/08/26 10:09:44;;;;;;;5.15;1.17;;;20.20;99.90;;;;;;5053970;28;20120;-82
2021/08/26 10:12:12;;;;;;;1.80;1.17;;;20.30;99.90;;;;;;5054163;28;20049;-80
2021/08/26 10:14:43;;;;;;;3.97;1.92;;;20.40;99.90;;;;;;5054093;28;20379;-83
2021/08/26 10:17:10;;;;;;;1.75;0.95;;;20.40;99.90;;;;;;5037353;28;20052;-84
2021/08/26 10:19:36;;;;;;;5.55;1.73;;;20.60;99.90;;;;;;5054832;28;20041;-83
2021/08/26 10:22:03;;;;;;;2.00;1.25;;;20.70;99.90;;;;;;5053742;28;20123;-82
2021/08/26 10:24:30;;;;;;;2.72;1.45;;;20.60;99.90;;;;;;5057584;28;20036;-83
2021/08/26 10:27:08;;;;;;;3.55;1.27;;;20.40;99.90;;;;;;5063183;28;20041;-84
2021/08/26 10:29:35;;;;;;;1.85;1.33;;;20.30;99.90;;;;;;5018648;28;20069;-82
2021/08/26 10:32:03;;;;;;;1.50;0.88;;;20.20;99.90;;;;;;5044698;28;20056;-83
2021/08/26 10:34:31;;;;;;;4.18;1.20;;;20.20;99.90;;;;;;5044728;28;20052;-82
2021/08/26 10:36:57;;;;;;;2.78;1.13;;;20.30;99.90;;;;;;5073412;28;20048;-83
2021/08/26 10:39:32;;;;;;;2.42;1.25;;;20.70;99.90;;;;;;5067884;28;20052;-83
2021/08/26 10:42:17;;;;;;;3.45;1.10;;;20.90;99.90;;;;;;5053219;28;20049;-83
2021/08/26 10:45:01;;;;;;;3.15;1.48;;;20.90;99.90;;;;;;5039227;28;20063;-81
2021/08/26 10:47:46;;;;;;;1.65;0.75;;;20.70;99.90;;;;;;5052058;28;20060;-83
2021/08/26 10:50:33;;;;;;;0.60;0.47;;;20.50;99.90;;;;;;5041339;28;20041;-83
2021/08/26 10:53:10;;;;;;;0.85;0.50;;;20.50;99.90;;;;;;5052208;28;20056;-82
2021/08/26 10:55:39;;;;;;;1.33;0.88;;;20.80;99.90;;;;;;5064558;28;20049;-84
2021/08/26 10:58:26;;;;;;;2.85;0.70;;;21.20;99.90;;;;;;5024108;28;20180;-82
2021/08/26 11:01:02;;;;;;;1.10;0.73;;;21.60;99.90;;;;;;5047627;28;20033;-83
2021/08/26 11:03:34;;;;;;;1.05;0.63;;;21.80;99.90;;;;;;5066489;28;20048;-82
2021/08/26 11:06:12;;;;;;;0.70;0.70;;;21.80;99.90;;;;;;5069100;28;20052;-84
2021/08/26 11:08:39;;;;;;;0.22;0.22;;;21.50;99.90;;;;;;5058899;28;20044;-83
2021/08/26 11:11:29;;;;;;;1.10;0.80;;;21.30;99.90;;;;;;5057070;28;20041;-84
2021/08/26 11:14:05;;;;;;;0.30;0.30;;;21.20;99.90;;;;;;5062589;28;20134;-83
2021/08/26 11:16:38;;;;;;;0.50;0.50;;;21.40;99.90;;;;;;5048275;28;20051;-85
2021/08/26 11:19:04;;;;;;;0.75;0.57;;;21.50;99.90;;;;;;5043594;28;20055;-83
2021/08/26 11:21:42;;;;;;;0.43;0.40;;;21.30;99.90;;;;;;5053621;28;20040;-83
2021/08/26 11:24:09;;;;;;;0.98;0.52;;;21.30;99.90;;;;;;5057506;28;20362;-84
2021/08/26 11:26:46;;;;;;;0.40;0.40;;;21.10;99.90;;;;;;5054778;28;20471;-81
2021/08/26 11:29:18;;;;;;;0.68;0.68;;;20.80;99.90;;;;;;5051262;28;20041;-82
2021/08/26 11:31:58;;;;;;;0.30;0.30;;;20.60;99.90;;;;;;5053237;28;20052;-80
2021/08/26 11:34:32;;;;;;;0.35;0.35;;;20.50;99.90;;;;;;5054879;28;20080;-81
2021/08/26 11:37:06;;;;;;;0.60;0.60;;;20.70;99.90;;;;;;5032771;28;20053;-81
2021/08/26 11:39:41;;;;;;;5.68;0.93;;;21.00;99.90;;;;;;5050088;28;20425;-82
2021/08/26 11:42:09;;;;;;;0.50;0.50;;;21.40;99.90;;;;;;5057551;28;20101;-80
2021/08/26 11:44:36;;;;;;;0.40;0.40;;;21.60;99.90;;;;;;5046040;28;20360;-80
2021/08/26 11:47:02;;;;;;;0.40;0.40;;;21.30;99.90;;;;;;5059041;28;20833;-82
2021/08/26 11:49:40;;;;;;;2.58;1.17;;;21.00;99.90;;;;;;5032334;28;20459;-81
2021/08/26 11:52:11;;;;;;;0.95;0.43;;;20.70;99.90;;;;;;5065939;28;20182;-81
2021/08/26 11:54:44;;;;;;;0.68;0.45;;;20.50;99.90;;;;;;5064940;28;20045;-83
2021/08/26 11:57:13;;;;;;;0.40;0.40;;;20.20;99.90;;;;;;5052783;28;20029;-84
2021/08/26 11:59:41;;;;;;;0.45;0.45;;;20.00;99.90;;;;;;5038976;28;20069;-83
2021/08/26 12:02:27;;;;;;;0.63;0.60;;;19.80;99.90;;;;;;5055722;28;20124;-81
2021/08/26 12:05:00;;;;;;;1.77;0.90;;;19.80;99.90;;;;;;5050164;28;20059;-83
2021/08/26 12:07:32;;;;;;;1.27;0.50;;;19.60;99.90;;;;;;5040673;28;20114;-82
2021/08/26 12:10:23;;;;;;;3.95;0.95;;;19.70;99.90;;;;;;5060456;28;20044;-83
2021/08/26 12:13:03;;;;;;;0.70;0.65;;;19.80;99.90;;;;;;5037895;28;20041;-84
2021/08/26 12:15:35;;;;;;;0.32;0.32;;;20.00;99.90;;;;;;5055326;28;20102;-81
2021/08/26 12:18:12;;;;;;;1.85;0.88;;;20.20;99.90;;;;;;5058815;28;20065;-82
2021/08/26 12:20:43;;;;;;;1.80;0.63;;;20.50;99.90;;;;;;5055710;28;20044;-83
2021/08/26 12:23:09;;;;;;;0.60;0.40;;;20.50;99.90;;;;;;5053458;28;20086;-81
2021/08/26 12:25:38;;;;;;;0.40;0.40;;;20.60;99.90;;;;;;5052803;28;20406;-84
2021/08/26 12:28:07;;;;;;;0.95;0.80;;;20.70;99.90;;;;;;5055050;28;20049;-82
2021/08/26 12:30:54;;;;;;;0.47;0.47;;;20.60;99.90;;;;;;5088786;28;20120;-82
2021/08/26 12:33:21;;;;;;;5.82;0.55;;;20.50;99.90;;;;;;5065458;28;20044;-82
2021/08/26 12:35:48;;;;;;;0.40;0.40;;;20.50;99.90;;;;;;5064897;28;20063;-82
2021/08/26 12:38:35;;;;;;;0.82;0.60;;;20.60;99.90;;;;;;5051253;28;20048;-81
2021/08/26 12:41:08;;;;;;;0.30;0.30;;;20.60;99.90;;;;;;5071047;28;20053;-80
2021/08/26 12:43:52;;;;;;;0.40;0.40;;;20.60;99.90;;;;;;5044473;28;20072;-81
2021/08/26 12:46:23;;;;;;;0.30;0.30;;;20.70;97.90;;;;;;5049502;28;20389;-81
2021/08/26 12:48:51;;;;;;;0.40;0.40;;;20.80;97.00;;;;;;5050126;28;20390;-82
2021/08/26 12:51:20;;;;;;;0.52;0.50;;;20.80;94.50;;;;;;5057119;28;20053;-85
2021/08/26 12:54:11;;;;;;;0.52;0.32;;;20.80;93.00;;;;;;5050904;28;20052;-82
2021/08/26 12:56:56;;;;;;;2.45;0.63;;;21.00;90.40;;;;;;5054199;28;20037;-82
2021/08/26 12:59:37;;;;;;;1.35;0.32;;;20.90;90.00;;;;;;5050333;28;20059;-81
2021/08/26 13:02:11;;;;;;;0.73;0.50;;;20.90;90.00;;;;;;5043204;28;20124;-79
2021/08/26 13:04:38;;;;;;;1.00;0.43;;;21.10;99.50;;;;;;5050484;28;20067;-82
2021/08/26 13:07:23;;;;;;;3.53;0.65;;;21.40;95.50;;;;;;5062852;28;20052;-86